createdAt,value
2023-05-12T00:00:04.702Z,5.18
2023-05-12T00:02:31.815Z,5.25
2023-05-12T00:04:58.805Z,5.25
2023-05-12T00:07:25.846Z,4.60
2023-05-12T00:09:52.699Z,4.85
2023-05-12T00:12:20.039Z,4.75
2023-05-12T00:14:46.967Z,4.80
2023-05-12T00:17:14.007Z,4.95
2023-05-12T00:19:43.955Z,4.68
2023-05-12T00:22:11.538Z,4.70
2023-05-12T00:24:38.493Z,4.82
2023-05-12T00:27:06.059Z,5.10
2023-05-12T00:29:33.202Z,4.95
2023-05-12T00:32:00.307Z,4.53
2023-05-12T00:34:27.645Z,5.05
2023-05-12T00:36:54.395Z,4.57
2023-05-12T00:39:21.476Z,4.28
2023-05-12T00:41:50.150Z,4.82
2023-05-12T00:44:18.524Z,4.38
2023-05-12T00:46:45.666Z,4.30
2023-05-12T00:49:12.844Z,4.80
2023-05-12T00:51:39.826Z,4.43
2023-05-12T00:54:06.723Z,4.22
2023-05-12T00:56:39.251Z,4.30
2023-05-12T00:59:06.658Z,4.07
2023-05-12T01:01:34.265Z,4.13
2023-05-12T01:04:02.239Z,4.43
2023-05-12T01:06:42.856Z,4.28
2023-05-12T01:09:10.160Z,3.92
2023-05-12T01:11:37.600Z,4.25
2023-05-12T01:14:04.482Z,4.13
2023-05-12T01:16:45.850Z,4.03
2023-05-12T01:19:20.561Z,4.13
2023-05-12T01:21:47.497Z,3.88
2023-05-12T01:24:16.692Z,3.90
2023-05-12T01:26:43.517Z,3.97
2023-05-12T01:29:10.781Z,3.90
2023-05-12T01:31:37.927Z,4.03
2023-05-12T01:34:04.731Z,4.00
2023-05-12T01:36:31.612Z,4.13
2023-05-12T01:38:58.455Z,3.83
2023-05-12T01:41:25.586Z,4.50
2023-05-12T01:43:52.357Z,3.67
2023-05-12T01:46:19.229Z,3.83
2023-05-12T01:48:46.025Z,3.80
2023-05-12T01:51:12.843Z,3.70
2023-05-12T01:53:39.735Z,3.85
2023-05-12T01:56:06.770Z,3.70
2023-05-12T01:58:33.634Z,3.60
2023-05-12T02:01:00.524Z,4.05
2023-05-12T02:03:27.430Z,4.28
2023-05-12T02:05:54.262Z,3.70
2023-05-12T02:08:21.591Z,3.75
2023-05-12T02:10:48.388Z,4.07
2023-05-12T02:13:15.530Z,3.50
2023-05-12T02:15:42.343Z,3.70
2023-05-12T02:18:09.468Z,3.80
2023-05-12T02:20:36.465Z,3.47
2023-05-12T02:23:03.256Z,3.55
2023-05-12T02:25:30.048Z,3.50
2023-05-12T02:27:56.836Z,3.78
2023-05-12T02:30:23.744Z,3.97
2023-05-12T02:32:50.602Z,3.50
2023-05-12T02:35:17.511Z,3.97
2023-05-12T02:37:44.297Z,4.07
2023-05-12T02:40:11.350Z,3.85
2023-05-12T02:42:39.259Z,3.28
2023-05-12T02:45:06.422Z,3.58
2023-05-12T02:47:33.297Z,3.88
2023-05-12T02:50:00.284Z,3.78
2023-05-12T02:52:27.239Z,4.13
2023-05-12T02:54:54.197Z,4.20
2023-05-12T02:57:21.093Z,4.18
2023-05-12T02:59:47.915Z,4.55
2023-05-12T03:02:14.794Z,4.50
2023-05-12T03:04:41.612Z,4.32
2023-05-12T03:07:09.215Z,5.03
2023-05-12T03:09:36.072Z,5.15
2023-05-12T03:12:03.034Z,5.03
2023-05-12T03:14:29.944Z,4.90
2023-05-12T03:16:57.206Z,5.30
2023-05-12T03:19:24.065Z,5.50
2023-05-12T03:21:50.958Z,5.75
2023-05-12T03:24:17.777Z,6.22
2023-05-12T03:26:44.650Z,6.50
2023-05-12T03:29:11.441Z,8.18
2023-05-12T03:31:38.252Z,8.05
2023-05-12T03:34:05.728Z,8.43
2023-05-12T03:36:32.584Z,9.65
2023-05-12T03:38:59.390Z,9.23
2023-05-12T03:41:26.162Z,10.30
2023-05-12T03:43:52.940Z,9.75
2023-05-12T03:46:19.815Z,10.40
2023-05-12T03:48:47.034Z,11.18
2023-05-12T03:51:13.812Z,10.05
2023-05-12T03:53:45.151Z,11.10
2023-05-12T03:56:12.271Z,10.68
2023-05-12T03:58:39.136Z,9.93
2023-05-12T04:01:05.899Z,9.80
2023-05-12T04:03:32.845Z,9.90
2023-05-12T04:06:00.669Z,10.20
2023-05-12T04:08:28.047Z,10.25
2023-05-12T04:10:58.750Z,9.10
2023-05-12T04:13:25.758Z,9.27
2023-05-12T04:15:54.891Z,9.23
2023-05-12T04:18:21.772Z,9.38
2023-05-12T04:20:48.615Z,7.82
2023-05-12T04:23:15.856Z,8.82
2023-05-12T04:25:42.950Z,8.75
2023-05-12T04:28:11.971Z,7.75
2023-05-12T04:30:40.384Z,7.85
2023-05-12T04:33:07.330Z,8.07
2023-05-12T04:35:34.391Z,8.82
2023-05-12T04:38:04.484Z,7.57
2023-05-12T04:40:34.122Z,8.85
2023-05-12T04:43:01.732Z,7.57
2023-05-12T04:45:28.542Z,8.38
2023-05-12T04:47:55.443Z,7.75
2023-05-12T04:50:22.239Z,7.53
2023-05-12T04:52:49.097Z,8.43
2023-05-12T04:55:15.926Z,8.40
2023-05-12T04:57:42.711Z,8.27
2023-05-12T05:00:09.812Z,7.95
2023-05-12T05:02:36.662Z,8.52
2023-05-12T05:05:03.615Z,7.50
2023-05-12T05:07:30.386Z,7.82
2023-05-12T05:09:57.170Z,7.65
2023-05-12T05:12:24.493Z,7.32
2023-05-12T05:14:51.525Z,7.40
2023-05-12T05:17:18.523Z,6.72
2023-05-12T05:19:57.880Z,6.97
2023-05-12T05:22:25.656Z,7.13
2023-05-12T05:24:52.700Z,6.88
2023-05-12T05:27:19.537Z,6.47
2023-05-12T05:29:46.520Z,5.97
2023-05-12T05:32:13.313Z,6.22
2023-05-12T05:34:40.131Z,5.75
2023-05-12T05:37:07.642Z,5.60
2023-05-12T05:39:34.421Z,6.00
2023-05-12T05:42:01.199Z,6.05
2023-05-12T05:44:28.043Z,6.07
2023-05-12T05:46:54.872Z,5.78
2023-05-12T05:49:21.683Z,6.07
2023-05-12T05:51:48.513Z,6.38
2023-05-12T05:54:15.290Z,5.50
2023-05-12T05:56:42.087Z,6.93
2023-05-12T05:59:09.928Z,6.03
2023-05-12T06:01:36.790Z,6.80
2023-05-12T06:04:03.838Z,6.28
2023-05-12T06:06:30.793Z,6.30
2023-05-12T06:08:57.735Z,6.43
2023-05-12T06:11:24.596Z,6.07
2023-05-12T06:13:51.474Z,6.28
2023-05-12T06:16:18.468Z,5.85
2023-05-12T06:18:45.320Z,6.47
2023-05-12T06:21:12.308Z,5.80
2023-05-12T06:23:39.100Z,6.65
2023-05-12T06:26:07.895Z,6.85
2023-05-12T06:28:34.764Z,6.90
2023-05-12T06:31:01.645Z,5.78
2023-05-12T06:33:28.543Z,5.97
2023-05-12T06:35:55.348Z,6.28
2023-05-12T06:38:22.120Z,6.03
2023-05-12T06:40:49.149Z,6.60
2023-05-12T06:43:16.008Z,6.45
2023-05-12T06:45:43.405Z,5.45
2023-05-12T06:48:10.458Z,6.18
2023-05-12T06:50:37.443Z,5.32
2023-05-12T06:53:06.247Z,5.80
2023-05-12T06:55:33.157Z,6.10
2023-05-12T06:58:00.007Z,4.97
2023-05-12T07:00:26.847Z,5.65
2023-05-12T07:02:53.834Z,5.20
2023-05-12T07:05:21.401Z,4.93
2023-05-12T07:07:48.481Z,5.53
2023-05-12T07:10:15.390Z,5.53
2023-05-12T07:12:42.268Z,5.35
2023-05-12T07:15:09.726Z,5.03
2023-05-12T07:17:36.722Z,5.47
2023-05-12T07:20:05.036Z,5.53
2023-05-12T07:22:32.774Z,4.57
2023-05-12T07:24:59.756Z,4.72
2023-05-12T07:27:26.943Z,4.57
2023-05-12T07:29:54.389Z,5.00
2023-05-12T07:32:21.506Z,4.60
2023-05-12T07:34:48.363Z,5.45
2023-05-12T07:37:15.220Z,5.13
2023-05-12T07:39:42.144Z,5.53
2023-05-12T07:42:09.106Z,4.18
2023-05-12T07:44:36.345Z,4.50
2023-05-12T07:47:03.240Z,4.93
2023-05-12T07:49:30.106Z,4.55
2023-05-12T07:51:56.896Z,5.28
2023-05-12T07:54:23.784Z,5.28
2023-05-12T07:56:50.743Z,5.47
2023-05-12T07:59:17.657Z,4.97
2023-05-12T08:01:44.582Z,5.03
2023-05-12T08:04:11.890Z,5.03
2023-05-12T08:06:38.848Z,5.07
2023-05-12T08:09:05.815Z,5.55
2023-05-12T08:11:32.671Z,5.65
2023-05-12T08:13:59.550Z,5.53
2023-05-12T08:16:26.377Z,5.18
2023-05-12T08:18:53.419Z,4.80
2023-05-12T08:21:20.478Z,4.88
2023-05-12T08:23:47.308Z,5.00
2023-05-12T08:26:14.154Z,5.47
2023-05-12T08:28:40.962Z,5.20
2023-05-12T08:31:07.836Z,5.75
2023-05-12T08:33:35.944Z,5.38
2023-05-12T08:36:02.823Z,5.53
2023-05-12T08:38:29.821Z,5.63
2023-05-12T08:41:08.241Z,5.22
2023-05-12T08:43:41.864Z,4.88
2023-05-12T08:46:09.066Z,5.13
2023-05-12T08:48:38.113Z,5.03
2023-05-12T08:51:07.240Z,5.22
2023-05-12T08:53:35.066Z,4.22
2023-05-12T08:57:09.908Z,4.30
2023-05-12T08:58:49.907Z,4.82
2023-05-12T09:01:17.569Z,4.72
2023-05-12T09:03:44.924Z,3.90
2023-05-12T09:06:11.862Z,3.75
2023-05-12T09:08:39.289Z,4.25
2023-05-12T09:11:06.832Z,3.85
2023-05-12T09:14:06.502Z,4.45
2023-05-12T09:16:34.382Z,5.20
2023-05-12T09:19:01.678Z,5.05
2023-05-12T09:21:28.882Z,4.35
2023-05-12T09:24:06.582Z,4.35
2023-05-12T09:26:53.870Z,4.60
2023-05-12T09:29:29.985Z,4.75
2023-05-12T09:32:02.332Z,4.32
2023-05-12T09:36:58.446Z,4.25
2023-05-12T09:39:25.781Z,4.03
2023-05-12T09:41:53.121Z,4.10
2023-05-12T09:44:19.920Z,4.30
2023-05-12T09:46:46.952Z,3.67
2023-05-12T09:49:18.375Z,3.80
2023-05-12T09:54:11.879Z,4.88
2023-05-12T09:56:38.740Z,3.60
2023-05-12T09:59:05.581Z,3.22
2023-05-12T10:01:32.512Z,3.95
2023-05-12T10:03:59.382Z,3.90
2023-05-12T10:06:28.471Z,4.85
2023-05-12T10:08:59.760Z,4.07
2023-05-12T10:11:28.056Z,4.53
2023-05-12T10:13:55.957Z,4.78
2023-05-12T10:16:23.123Z,4.60
2023-05-12T10:18:51.021Z,5.00
2023-05-12T10:21:18.528Z,4.45
2023-05-12T10:23:45.809Z,4.20
2023-05-12T10:26:13.854Z,4.28
2023-05-12T10:28:41.148Z,4.20
2023-05-12T10:31:08.141Z,3.90
2023-05-12T10:33:35.006Z,3.45
2023-05-12T10:36:01.794Z,3.75
2023-05-12T10:38:36.260Z,4.13
2023-05-12T10:41:05.585Z,3.70
2023-05-12T10:43:43.220Z,3.47
2023-05-12T10:46:15.259Z,4.07
2023-05-12T10:49:01.011Z,3.33
2023-05-12T10:51:28.649Z,3.00
2023-05-12T10:54:03.790Z,2.72
2023-05-12T10:56:40.634Z,2.50
2023-05-12T10:59:20.495Z,2.53
2023-05-12T11:01:57.815Z,2.80
2023-05-12T11:04:36.530Z,3.17
2023-05-12T11:07:06.006Z,3.00
2023-05-12T11:09:36.351Z,2.90
2023-05-12T11:12:06.764Z,3.78
2023-05-12T11:14:34.245Z,4.03
2023-05-12T11:17:01.128Z,3.70
2023-05-12T11:19:30.908Z,3.63
2023-05-12T11:21:57.857Z,3.90
2023-05-12T11:24:24.769Z,3.67
2023-05-12T11:26:52.216Z,3.63
2023-05-12T11:29:19.797Z,4.10
2023-05-12T11:31:53.452Z,3.85
2023-05-12T11:34:23.631Z,3.88
2023-05-12T11:36:54.982Z,4.32
2023-05-12T11:39:22.786Z,4.05
2023-05-12T11:41:54.589Z,4.15
2023-05-12T11:44:26.342Z,4.00
2023-05-12T11:46:56.096Z,3.55
2023-05-12T11:49:22.960Z,4.28
2023-05-12T11:51:51.598Z,4.10
2023-05-12T11:54:18.637Z,4.90
2023-05-12T11:56:49.490Z,4.20
2023-05-12T11:59:26.066Z,3.83
2023-05-12T12:01:52.943Z,3.78
2023-05-12T12:04:19.868Z,4.60
2023-05-12T12:06:47.017Z,3.97
2023-05-12T12:09:13.914Z,4.28
2023-05-12T12:11:40.754Z,4.65
2023-05-12T12:14:07.714Z,4.15
2023-05-12T12:16:34.536Z,4.30
2023-05-12T12:19:01.450Z,3.78
2023-05-12T12:21:28.439Z,3.78
2023-05-12T12:23:55.288Z,3.60
2023-05-12T12:26:22.986Z,3.33
2023-05-12T12:28:49.872Z,3.40
2023-05-12T12:31:16.785Z,3.05
2023-05-12T12:33:43.574Z,3.95
2023-05-12T12:36:10.561Z,3.25
2023-05-12T12:38:38.003Z,3.60
2023-05-12T12:41:05.286Z,3.80
2023-05-12T12:43:32.374Z,3.53
2023-05-12T12:45:59.176Z,3.33
2023-05-12T12:48:28.538Z,3.58
2023-05-12T12:50:56.076Z,3.00
2023-05-12T12:53:22.910Z,3.15
2023-05-12T12:55:49.785Z,2.72
2023-05-12T12:58:16.732Z,2.60
2023-05-12T13:00:43.642Z,2.40
2023-05-12T13:03:11.092Z,2.53
2023-05-12T13:05:37.917Z,2.90
2023-05-12T13:08:04.822Z,2.65
2023-05-12T13:10:31.654Z,3.00
2023-05-12T13:12:58.565Z,2.55
2023-05-12T13:15:25.874Z,2.35
2023-05-12T13:17:53.048Z,2.20
2023-05-12T13:20:20.158Z,1.90
2023-05-12T13:22:47.723Z,2.25
2023-05-12T13:25:14.781Z,1.90
2023-05-12T13:27:41.688Z,2.10
2023-05-12T13:30:09.128Z,2.25
2023-05-12T13:32:36.593Z,2.63
2023-05-12T13:35:04.421Z,2.92
2023-05-12T13:37:31.501Z,2.95
2023-05-12T13:39:58.380Z,2.97
2023-05-12T13:42:25.236Z,2.85
2023-05-12T13:44:52.047Z,3.22
2023-05-12T13:47:19.189Z,3.05
2023-05-12T13:49:46.052Z,3.20
2023-05-12T13:52:12.836Z,3.45
2023-05-12T13:54:39.629Z,3.20
2023-05-12T13:57:06.454Z,3.22
2023-05-12T13:59:33.370Z,3.13
2023-05-12T14:02:00.456Z,3.58
2023-05-12T14:04:27.522Z,3.45
2023-05-12T14:06:54.630Z,3.70
2023-05-12T14:09:21.683Z,3.60
2023-05-12T14:11:48.449Z,4.13
2023-05-12T14:14:15.202Z,4.35
2023-05-12T14:16:42.121Z,4.53
2023-05-12T14:19:09.103Z,4.80
2023-05-12T14:21:36.117Z,5.05
2023-05-12T14:24:03.204Z,5.10
2023-05-12T14:26:30.012Z,5.40
2023-05-12T14:28:56.924Z,4.93
2023-05-12T14:31:23.986Z,5.05
2023-05-12T14:33:52.266Z,5.60
2023-05-12T14:36:19.412Z,5.63
2023-05-12T14:38:46.231Z,6.13
2023-05-12T14:41:13.200Z,6.07
2023-05-12T14:43:40.015Z,6.63
2023-05-12T14:46:08.905Z,5.97
2023-05-12T14:48:35.811Z,6.45
2023-05-12T14:51:03.401Z,5.97
2023-05-12T14:53:30.389Z,7.00
2023-05-12T14:55:57.233Z,6.97
2023-05-12T14:58:24.520Z,7.63
2023-05-12T15:00:51.835Z,7.35
2023-05-12T15:03:20.711Z,7.60
2023-05-12T15:06:04.705Z,8.20
2023-05-12T15:08:33.572Z,8.05
2023-05-12T15:11:00.470Z,7.80
2023-05-12T15:13:27.271Z,8.65
2023-05-12T15:15:56.417Z,7.95
2023-05-12T15:18:23.996Z,8.48
2023-05-12T15:20:51.607Z,8.55
2023-05-12T15:23:18.457Z,8.23
2023-05-12T15:25:45.229Z,8.07
2023-05-12T15:28:12.068Z,8.77
2023-05-12T15:30:38.925Z,8.75
2023-05-12T15:33:06.588Z,9.00
2023-05-12T15:35:33.857Z,7.75
2023-05-12T15:38:00.721Z,7.80
2023-05-12T15:40:27.594Z,7.13
2023-05-12T15:42:54.573Z,6.80
2023-05-12T15:45:21.808Z,7.45
2023-05-12T15:47:48.912Z,7.07
2023-05-12T15:50:19.855Z,6.60
2023-05-12T15:52:47.426Z,6.57
2023-05-12T15:55:14.368Z,7.22
2023-05-12T15:57:41.288Z,6.80
2023-05-12T16:00:08.525Z,6.13
2023-05-12T16:02:35.440Z,7.03
2023-05-12T16:05:02.537Z,7.05
2023-05-12T16:07:31.068Z,7.72
2023-05-12T16:09:58.437Z,7.40
2023-05-12T16:12:25.258Z,6.93
2023-05-12T16:14:52.033Z,7.22
2023-05-12T16:17:19.091Z,6.93
2023-05-12T16:19:45.900Z,6.22
2023-05-12T16:22:14.422Z,6.32
2023-05-12T16:24:41.554Z,7.28
2023-05-12T16:27:08.753Z,6.63
2023-05-12T16:29:35.666Z,6.43
2023-05-12T16:32:02.484Z,5.93
2023-05-12T16:34:29.309Z,5.93
2023-05-12T16:36:56.119Z,6.70
2023-05-12T16:39:22.917Z,5.85
2023-05-12T16:41:49.803Z,6.43
2023-05-12T16:44:16.749Z,6.43
2023-05-12T16:46:43.561Z,6.40
2023-05-12T16:49:10.503Z,6.57
2023-05-12T16:51:37.339Z,6.60
2023-05-12T16:54:04.180Z,6.10
2023-05-12T16:56:31.042Z,5.85
2023-05-12T16:58:57.853Z,5.38
2023-05-12T17:01:24.737Z,5.90
2023-05-12T17:03:51.856Z,6.05
2023-05-12T17:06:18.762Z,5.03
2023-05-12T17:08:45.649Z,5.72
2023-05-12T17:11:12.532Z,6.45
2023-05-12T17:13:39.404Z,6.10
2023-05-12T17:16:06.408Z,6.45
2023-05-12T17:21:20.146Z,6.10
2023-05-12T17:23:47.227Z,6.60
2023-05-12T17:26:14.542Z,6.55
2023-05-12T17:28:41.375Z,6.57
2023-05-12T17:31:08.479Z,6.32
2023-05-12T17:33:35.424Z,6.43
2023-05-12T17:36:11.828Z,6.00
2023-05-12T17:38:40.061Z,6.05
2023-05-12T17:41:06.960Z,6.45
2023-05-12T17:43:33.844Z,6.85
2023-05-12T17:46:00.861Z,6.38
2023-05-12T17:48:28.093Z,6.47
2023-05-12T17:50:55.048Z,6.28
2023-05-12T17:53:21.934Z,6.40
2023-05-12T17:55:48.931Z,7.13
2023-05-12T17:58:15.768Z,6.85
2023-05-12T18:00:42.665Z,6.68
2023-05-12T18:03:09.745Z,7.15
2023-05-12T18:05:36.904Z,7.15
2023-05-12T18:08:03.802Z,7.10
2023-05-12T18:10:30.637Z,7.55
2023-05-12T18:12:57.813Z,7.05
2023-05-12T18:15:24.951Z,6.93
2023-05-12T18:17:51.805Z,7.00
2023-05-12T18:20:19.093Z,6.53
2023-05-12T18:22:46.013Z,6.88
2023-05-12T18:25:16.056Z,7.20
2023-05-12T18:27:42.944Z,7.15
2023-05-12T18:30:09.998Z,7.57
2023-05-12T18:32:38.132Z,6.90
2023-05-12T18:35:06.017Z,7.45
2023-05-12T18:37:32.853Z,8.20
2023-05-12T18:39:59.778Z,6.40
2023-05-12T18:42:26.651Z,7.53
2023-05-12T18:44:54.024Z,7.28
2023-05-12T18:47:21.000Z,7.03
2023-05-12T18:49:47.916Z,7.43
2023-05-12T18:52:14.698Z,7.80
2023-05-12T18:54:41.631Z,7.90
2023-05-12T18:57:08.812Z,7.40
2023-05-12T18:59:35.590Z,7.38
2023-05-12T19:02:02.848Z,7.75
2023-05-12T19:04:29.886Z,7.40
2023-05-12T19:06:56.675Z,7.32
2023-05-12T19:09:23.509Z,7.88
2023-05-12T19:11:50.400Z,7.47
2023-05-12T19:14:17.753Z,6.55
2023-05-12T19:16:46.521Z,7.88
2023-05-12T19:19:13.657Z,7.65
2023-05-12T19:21:40.622Z,6.93
2023-05-12T19:24:08.486Z,7.30
2023-05-12T19:26:35.366Z,7.10
2023-05-12T19:29:02.231Z,7.22
2023-05-12T19:31:33.094Z,8.55
2023-05-12T19:34:00.131Z,7.45
2023-05-12T19:36:28.891Z,7.43
2023-05-12T19:38:59.555Z,7.57
2023-05-12T19:41:27.882Z,7.43
2023-05-12T19:43:55.258Z,7.13
2023-05-12T19:46:22.140Z,7.97
2023-05-12T19:48:49.128Z,7.70
2023-05-12T19:51:15.930Z,7.88
2023-05-12T19:53:43.742Z,7.18
2023-05-12T19:56:10.531Z,7.85
2023-05-12T19:58:37.446Z,6.78
2023-05-12T20:01:04.300Z,7.47
2023-05-12T20:03:31.258Z,6.93
2023-05-12T20:05:58.973Z,7.15
2023-05-12T20:08:25.850Z,6.85
2023-05-12T20:10:52.683Z,7.60
2023-05-12T20:13:19.485Z,6.72
2023-05-12T20:15:46.380Z,7.10
2023-05-12T20:18:15.576Z,7.55
2023-05-12T20:20:43.145Z,7.63
2023-05-12T20:23:10.059Z,7.45
2023-05-12T20:25:36.890Z,6.57
2023-05-12T20:28:03.868Z,7.30
2023-05-12T20:30:30.832Z,7.60
2023-05-12T20:32:57.782Z,6.50
2023-05-12T20:35:24.717Z,6.90
2023-05-12T20:37:51.593Z,6.97
2023-05-12T20:40:19.677Z,6.90
2023-05-12T20:42:47.010Z,6.90
2023-05-12T20:45:14.324Z,6.70
2023-05-12T20:47:42.012Z,7.38
2023-05-12T20:50:09.129Z,7.28
2023-05-12T20:52:40.053Z,6.93
2023-05-12T20:55:07.248Z,6.97
2023-05-12T20:57:34.273Z,6.65
2023-05-12T21:00:01.117Z,7.50
2023-05-12T21:02:28.671Z,7.22
2023-05-12T21:04:56.342Z,7.50
2023-05-12T21:07:23.123Z,7.20
2023-05-12T21:09:49.887Z,6.90
2023-05-12T21:12:16.669Z,6.78
2023-05-12T21:14:44.113Z,6.97
2023-05-12T21:17:11.276Z,7.45
2023-05-12T21:19:38.720Z,7.68
2023-05-12T21:22:06.889Z,7.90
2023-05-12T21:24:33.748Z,6.75
2023-05-12T21:27:04.121Z,7.53
2023-05-12T21:29:31.814Z,6.72
2023-05-12T21:31:58.736Z,7.22
2023-05-12T21:34:25.912Z,6.90
2023-05-12T21:36:52.904Z,7.85
2023-05-12T21:39:19.731Z,7.28
2023-05-12T21:41:46.569Z,7.47
2023-05-12T21:44:13.413Z,7.18
2023-05-12T21:46:40.460Z,6.90
2023-05-12T21:49:07.298Z,8.10
2023-05-12T21:51:34.164Z,7.88
2023-05-12T21:54:01.035Z,7.70
2023-05-12T21:56:27.826Z,7.43
2023-05-12T21:58:54.735Z,7.43
2023-05-12T22:01:21.563Z,7.20
2023-05-12T22:03:48.647Z,7.38
2023-05-12T22:06:15.563Z,7.57
2023-05-12T22:08:42.464Z,8.20
2023-05-12T22:11:09.345Z,7.93
2023-05-12T22:13:36.301Z,8.50
2023-05-12T22:16:03.994Z,7.43
2023-05-12T22:18:31.035Z,7.38
2023-05-12T22:20:57.938Z,7.47
2023-05-12T22:23:24.760Z,7.28
2023-05-12T22:25:51.585Z,8.07
2023-05-12T22:28:18.528Z,7.30
2023-05-12T22:30:45.589Z,8.48
2023-05-12T22:33:12.500Z,7.30
2023-05-12T22:35:39.377Z,7.53
2023-05-12T22:38:06.227Z,7.85
2023-05-12T22:40:33.811Z,7.70
2023-05-12T22:43:00.693Z,7.30
2023-05-12T22:45:27.578Z,7.68
2023-05-12T22:47:54.554Z,7.40
2023-05-12T22:50:21.628Z,7.22
2023-05-12T22:52:48.672Z,7.07
2023-05-12T22:55:15.527Z,7.57
2023-05-12T22:57:43.818Z,7.63
2023-05-12T23:00:11.619Z,7.30
2023-05-12T23:02:38.591Z,6.97
2023-05-12T23:05:05.837Z,6.38
2023-05-12T23:07:32.641Z,7.43
2023-05-12T23:09:59.460Z,7.00
2023-05-12T23:12:26.266Z,6.68
2023-05-12T23:14:53.068Z,6.82
2023-05-12T23:17:20.863Z,7.25
2023-05-12T23:19:47.845Z,6.22
2023-05-12T23:22:14.645Z,6.30
2023-05-12T23:24:41.522Z,5.78
2023-05-12T23:27:08.513Z,6.90
2023-05-12T23:29:35.336Z,7.13
2023-05-12T23:32:02.540Z,6.05
2023-05-12T23:34:29.430Z,6.15
2023-05-12T23:36:56.250Z,6.00
2023-05-12T23:39:23.025Z,6.55
2023-05-12T23:41:49.988Z,6.18
2023-05-12T23:44:16.829Z,6.35
2023-05-12T23:46:43.784Z,5.75
2023-05-12T23:49:10.604Z,6.28
2023-05-12T23:51:37.412Z,6.57
2023-05-12T23:54:04.284Z,5.82
2023-05-12T23:56:31.108Z,6.00
2023-05-12T23:58:57.952Z,6.20
